sensor_id;sensor_type;location;lat;lon;timestamp;temperature;humidity
16838;DHT22;19510;54.486;9.046;2023-08-17T01:29:33;15.70;99.90
16838;DHT22;19510;54.486;9.046;2023-08-17T01:34:52;15.60;99.90
16838;DHT22;19510;54.486;9.046;2023-08-17T01:37:21;15.60;99.90
16838;DHT22;19510;54.486;9.046;2023-08-17T01:39:50;15.60;99.90
16838;DHT22;19510;54.486;9.046;2023-08-17T01:42:17;15.60;99.90
16838;DHT22;19510;54.486;9.046;2023-08-17T01:44:44;15.60;99.90
16838;DHT22;19510;54.486;9.046;2023-08-17T01:47:10;15.60;99.90
16838;DHT22;19510;54.486;9.046;2023-08-17T01:49:36;15.50;99.90
16838;DHT22;19510;54.486;9.046;2023-08-17T01:52:02;15.60;99.90
16838;DHT22;19510;54.486;9.046;2023-08-17T01:54:28;15.60;99.90
16838;DHT22;19510;54.486;9.046;2023-08-17T01:56:54;15.50;99.90
16838;DHT22;19510;54.486;9.046;2023-08-17T01:59:19;15.50;99.90
16838;DHT22;19510;54.486;9.046;2023-08-17T02:01:45;15.40;99.90
16838;DHT22;19510;54.486;9.046;2023-08-17T02:04:11;15.50;99.90
16838;DHT22;19510;54.486;9.046;2023-08-17T02:06:36;15.50;99.90
16838;DHT22;19510;54.486;9.046;2023-08-17T02:09:02;15.60;99.90
16838;DHT22;19510;54.486;9.046;2023-08-17T02:11:28;15.60;99.90
16838;DHT22;19510;54.486;9.046;2023-08-17T02:13:53;15.60;99.90
16838;DHT22;19510;54.486;9.046;2023-08-17T02:16:19;15.60;99.90
16838;DHT22;19510;54.486;9.046;2023-08-17T02:18:45;15.60;99.90
16838;DHT22;19510;54.486;9.046;2023-08-17T02:21:10;15.60;99.90
16838;DHT22;19510;54.486;9.046;2023-08-17T02:23:36;15.60;99.90
16838;DHT22;19510;54.486;9.046;2023-08-17T02:26:02;15.50;99.90
16838;DHT22;19510;54.486;9.046;2023-08-17T02:28:28;15.50;99.90
16838;DHT22;19510;54.486;9.046;2023-08-17T02:30:57;15.50;99.90
16838;DHT22;19510;54.486;9.046;2023-08-17T02:33:23;15.50;99.90
16838;DHT22;19510;54.486;9.046;2023-08-17T02:35:50;15.50;99.90
16838;DHT22;19510;54.486;9.046;2023-08-17T02:38:16;15.60;99.90
16838;DHT22;19510;54.486;9.046;2023-08-17T02:40:41;15.60;99.90
16838;DHT22;19510;54.486;9.046;2023-08-17T02:43:07;15.60;99.90
16838;DHT22;19510;54.486;9.046;2023-08-17T02:45:34;15.60;99.90
16838;DHT22;19510;54.486;9.046;2023-08-17T02:48:00;15.50;99.90
16838;DHT22;19510;54.486;9.046;2023-08-17T02:50:25;15.60;99.90
16838;DHT22;19510;54.486;9.046;2023-08-17T02:52:51;15.50;99.90
16838;DHT22;19510;54.486;9.046;2023-08-17T02:55:17;15.50;99.90
16838;DHT22;19510;54.486;9.046;2023-08-17T02:57:42;15.50;99.90
16838;DHT22;19510;54.486;9.046;2023-08-17T03:00:09;15.50;99.90
16838;DHT22;19510;54.486;9.046;2023-08-17T03:02:34;15.50;99.90
16838;DHT22;19510;54.486;9.046;2023-08-17T03:05:00;15.50;99.90
16838;DHT22;19510;54.486;9.046;2023-08-17T03:07:26;15.50;99.90
16838;DHT22;19510;54.486;9.046;2023-08-17T03:09:51;15.50;99.90
16838;DHT22;19510;54.486;9.046;2023-08-17T03:12:17;15.50;99.90
16838;DHT22;19510;54.486;9.046;2023-08-17T03:14:43;15.50;99.90
16838;DHT22;19510;54.486;9.046;2023-08-17T03:17:08;15.50;99.90
16838;DHT22;19510;54.486;9.046;2023-08-17T03:19:34;15.40;99.90
16838;DHT22;19510;54.486;9.046;2023-08-17T03:22:00;15.40;99.90
16838;DHT22;19510;54.486;9.046;2023-08-17T03:24:26;15.40;99.90
16838;DHT22;19510;54.486;9.046;2023-08-17T03:26:51;15.30;99.90
16838;DHT22;19510;54.486;9.046;2023-08-17T03:29:17;15.30;99.90
16838;DHT22;19510;54.486;9.046;2023-08-17T03:31:43;15.40;99.90
16838;DHT22;19510;54.486;9.046;2023-08-17T03:34:10;15.30;99.90
16838;DHT22;19510;54.486;9.046;2023-08-17T03:36:36;15.40;99.90
16838;DHT22;19510;54.486;9.046;2023-08-17T03:39:02;15.40;99.90
16838;DHT22;19510;54.486;9.046;2023-08-17T03:41:28;15.40;99.90
16838;DHT22;19510;54.486;9.046;2023-08-17T03:43:53;15.30;99.90
16838;DHT22;19510;54.486;9.046;2023-08-17T03:46:19;15.30;99.90
16838;DHT22;19510;54.486;9.046;2023-08-17T03:48:45;15.40;99.90
16838;DHT22;19510;54.486;9.046;2023-08-17T03:51:10;15.40;99.90
16838;DHT22;19510;54.486;9.046;2023-08-17T03:53:36;15.40;99.90
16838;DHT22;19510;54.486;9.046;2023-08-17T03:56:02;15.40;99.90
16838;DHT22;19510;54.486;9.046;2023-08-17T03:58:27;15.40;99.90
16838;DHT22;19510;54.486;9.046;2023-08-17T04:00:58;15.30;99.90
16838;DHT22;19510;54.486;9.046;2023-08-17T04:03:24;15.40;99.90
16838;DHT22;19510;54.486;9.046;2023-08-17T04:05:50;15.30;99.90
16838;DHT22;19510;54.486;9.046;2023-08-17T04:08:15;15.30;99.90
16838;DHT22;19510;54.486;9.046;2023-08-17T04:10:41;15.20;99.90
16838;DHT22;19510;54.486;9.046;2023-08-17T04:13:06;15.20;99.90
16838;DHT22;19510;54.486;9.046;2023-08-17T04:15:32;15.20;99.90
16838;DHT22;19510;54.486;9.046;2023-08-17T04:17:58;15.20;99.90
16838;DHT22;19510;54.486;9.046;2023-08-17T04:20:24;15.10;99.90
16838;DHT22;19510;54.486;9.046;2023-08-17T04:22:50;15.00;99.90
16838;DHT22;19510;54.486;9.046;2023-08-17T04:25:16;15.00;99.90
16838;DHT22;19510;54.486;9.046;2023-08-17T04:27:42;15.00;99.90
16838;DHT22;19510;54.486;9.046;2023-08-17T04:30:08;15.00;99.90
16838;DHT22;19510;54.486;9.046;2023-08-17T04:32:34;15.00;99.90
16838;DHT22;19510;54.486;9.046;2023-08-17T04:35:00;15.00;99.90
16838;DHT22;19510;54.486;9.046;2023-08-17T04:37:25;15.00;99.90
16838;DHT22;19510;54.486;9.046;2023-08-17T04:39:51;15.00;99.90
16838;DHT22;19510;54.486;9.046;2023-08-17T04:42:17;15.00;99.90
16838;DHT22;19510;54.486;9.046;2023-08-17T04:44:45;15.00;99.90
16838;DHT22;19510;54.486;9.046;2023-08-17T04:47:10;15.00;99.90
16838;DHT22;19510;54.486;9.046;2023-08-17T04:49:36;15.00;99.90
16838;DHT22;19510;54.486;9.046;2023-08-17T04:52:03;15.00;99.90
16838;DHT22;19510;54.486;9.046;2023-08-17T04:54:31;14.90;99.90
16838;DHT22;19510;54.486;9.046;2023-08-17T04:56:56;15.00;99.90
16838;DHT22;19510;54.486;9.046;2023-08-17T04:59:22;14.90;99.90
16838;DHT22;19510;54.486;9.046;2023-08-17T05:01:47;14.90;99.90
16838;DHT22;19510;54.486;9.046;2023-08-17T05:04:13;14.90;99.90
16838;DHT22;19510;54.486;9.046;2023-08-17T05:06:39;14.90;99.90
16838;DHT22;19510;54.486;9.046;2023-08-17T05:09:05;15.00;99.90
16838;DHT22;19510;54.486;9.046;2023-08-17T05:11:31;15.00;99.90
16838;DHT22;19510;54.486;9.046;2023-08-17T05:13:57;15.10;99.90
16838;DHT22;19510;54.486;9.046;2023-08-17T05:16:22;15.10;99.90
16838;DHT22;19510;54.486;9.046;2023-08-17T05:18:50;15.20;99.90
16838;DHT22;19510;54.486;9.046;2023-08-17T05:21:19;15.20;99.90
16838;DHT22;19510;54.486;9.046;2023-08-17T05:23:44;15.20;99.90
16838;DHT22;19510;54.486;9.046;2023-08-17T05:26:10;15.20;99.90
16838;DHT22;19510;54.486;9.046;2023-08-17T05:28:36;15.30;99.90
16838;DHT22;19510;54.486;9.046;2023-08-17T05:31:07;15.30;99.90
16838;DHT22;19510;54.486;9.046;2023-08-17T05:33:32;15.30;99.90
16838;DHT22;19510;54.486;9.046;2023-08-17T05:35:58;15.30;99.90
16838;DHT22;19510;54.486;9.046;2023-08-17T05:38:26;15.30;99.90
16838;DHT22;19510;54.486;9.046;2023-08-17T05:40:55;15.20;99.90
16838;DHT22;19510;54.486;9.046;2023-08-17T05:43:22;15.20;99.90
16838;DHT22;19510;54.486;9.046;2023-08-17T05:45:48;15.30;99.90
16838;DHT22;19510;54.486;9.046;2023-08-17T05:48:13;15.30;99.90
16838;DHT22;19510;54.486;9.046;2023-08-17T05:50:42;15.30;99.90
16838;DHT22;19510;54.486;9.046;2023-08-17T05:53:08;15.40;99.90
16838;DHT22;19510;54.486;9.046;2023-08-17T05:55:34;15.40;99.90
16838;DHT22;19510;54.486;9.046;2023-08-17T05:58:00;15.40;99.90
16838;DHT22;19510;54.486;9.046;2023-08-17T06:00:25;15.50;99.90
16838;DHT22;19510;54.486;9.046;2023-08-17T06:02:51;15.50;99.90
16838;DHT22;19510;54.486;9.046;2023-08-17T06:05:18;15.60;99.90
16838;DHT22;19510;54.486;9.046;2023-08-17T06:07:44;15.70;99.90
16838;DHT22;19510;54.486;9.046;2023-08-17T06:10:10;15.70;99.90
16838;DHT22;19510;54.486;9.046;2023-08-17T06:19:17;15.70;99.90
16838;DHT22;19510;54.486;9.046;2023-08-17T06:21:48;15.80;99.90
16838;DHT22;19510;54.486;9.046;2023-08-17T06:24:13;15.70;99.90
16838;DHT22;19510;54.486;9.046;2023-08-17T06:26:39;15.80;99.90
16838;DHT22;19510;54.486;9.046;2023-08-17T06:29:05;15.80;99.90
16838;DHT22;19510;54.486;9.046;2023-08-17T06:31:31;15.90;99.90
16838;DHT22;19510;54.486;9.046;2023-08-17T06:33:57;15.90;99.90
16838;DHT22;19510;54.486;9.046;2023-08-17T06:36:22;15.90;99.90
16838;DHT22;19510;54.486;9.046;2023-08-17T06:38:48;16.00;99.90
16838;DHT22;19510;54.486;9.046;2023-08-17T06:41:14;16.00;99.90
16838;DHT22;19510;54.486;9.046;2023-08-17T06:43:39;16.10;99.90
16838;DHT22;19510;54.486;9.046;2023-08-17T06:46:05;16.10;99.90
16838;DHT22;19510;54.486;9.046;2023-08-17T06:48:31;16.20;99.90
16838;DHT22;19510;54.486;9.046;2023-08-17T06:54:19;16.30;99.90
16838;DHT22;19510;54.486;9.046;2023-08-17T06:56:47;16.30;99.90
16838;DHT22;19510;54.486;9.046;2023-08-17T06:59:13;16.20;99.90
16838;DHT22;19510;54.486;9.046;2023-08-17T07:01:38;16.20;99.90
16838;DHT22;19510;54.486;9.046;2023-08-17T07:04:04;16.30;99.90
16838;DHT22;19510;54.486;9.046;2023-08-17T07:06:30;16.40;99.90
16838;DHT22;19510;54.486;9.046;2023-08-17T07:08:56;16.40;99.90
16838;DHT22;19510;54.486;9.046;2023-08-17T07:11:22;16.50;99.90
16838;DHT22;19510;54.486;9.046;2023-08-17T07:13:47;16.50;99.90
16838;DHT22;19510;54.486;9.046;2023-08-17T07:16:13;16.50;99.90
16838;DHT22;19510;54.486;9.046;2023-08-17T07:18:39;16.50;99.90
16838;DHT22;19510;54.486;9.046;2023-08-17T07:21:05;16.60;99.90
16838;DHT22;19510;54.486;9.046;2023-08-17T07:23:31;16.60;99.90
16838;DHT22;19510;54.486;9.046;2023-08-17T07:25:59;16.60;99.90
16838;DHT22;19510;54.486;9.046;2023-08-17T07:28:25;16.70;99.90
16838;DHT22;19510;54.486;9.046;2023-08-17T07:30:50;16.70;99.90
16838;DHT22;19510;54.486;9.046;2023-08-17T07:33:16;16.70;99.90
16838;DHT22;19510;54.486;9.046;2023-08-17T07:35:42;16.80;99.90
16838;DHT22;19510;54.486;9.046;2023-08-17T07:38:08;16.80;99.90
16838;DHT22;19510;54.486;9.046;2023-08-17T07:40:34;16.90;99.90
16838;DHT22;19510;54.486;9.046;2023-08-17T07:42:59;17.00;99.90
16838;DHT22;19510;54.486;9.046;2023-08-17T07:45:28;17.00;99.90
16838;DHT22;19510;54.486;9.046;2023-08-17T07:47:53;17.10;99.90
16838;DHT22;19510;54.486;9.046;2023-08-17T07:50:19;17.20;99.90
16838;DHT22;19510;54.486;9.046;2023-08-17T07:52:46;17.10;99.90
16838;DHT22;19510;54.486;9.046;2023-08-17T07:55:13;17.10;99.90
16838;DHT22;19510;54.486;9.046;2023-08-17T07:57:39;17.10;99.90
16838;DHT22;19510;54.486;9.046;2023-08-17T08:00:05;17.20;99.90
16838;DHT22;19510;54.486;9.046;2023-08-17T08:02:31;17.20;99.90
16838;DHT22;19510;54.486;9.046;2023-08-17T08:04:56;17.30;99.90
16838;DHT22;19510;54.486;9.046;2023-08-17T08:07:24;17.30;99.90
16838;DHT22;19510;54.486;9.046;2023-08-17T08:09:50;17.30;99.90
16838;DHT22;19510;54.486;9.046;2023-08-17T08:12:15;17.40;99.90
16838;DHT22;19510;54.486;9.046;2023-08-17T08:14:41;17.40;99.90
16838;DHT22;19510;54.486;9.046;2023-08-17T08:17:07;17.40;99.90
16838;DHT22;19510;54.486;9.046;2023-08-17T08:19:32;17.50;99.90
16838;DHT22;19510;54.486;9.046;2023-08-17T08:21:58;17.60;99.90
16838;DHT22;19510;54.486;9.046;2023-08-17T08:24:24;17.60;99.90
16838;DHT22;19510;54.486;9.046;2023-08-17T08:26:50;17.60;99.90
16838;DHT22;19510;54.486;9.046;2023-08-17T08:29:18;17.60;99.90
16838;DHT22;19510;54.486;9.046;2023-08-17T08:31:44;17.70;99.90
16838;DHT22;19510;54.486;9.046;2023-08-17T08:34:09;17.70;99.90
16838;DHT22;19510;54.486;9.046;2023-08-17T08:36:35;17.80;99.90
16838;DHT22;19510;54.486;9.046;2023-08-17T08:39:00;17.80;99.90
16838;DHT22;19510;54.486;9.046;2023-08-17T08:41:26;17.90;99.90
16838;DHT22;19510;54.486;9.046;2023-08-17T08:43:53;17.90;99.90
16838;DHT22;19510;54.486;9.046;2023-08-17T08:46:20;18.00;99.90
16838;DHT22;19510;54.486;9.046;2023-08-17T08:48:53;18.00;99.90
16838;DHT22;19510;54.486;9.046;2023-08-17T08:51:25;18.00;99.90
16838;DHT22;19510;54.486;9.046;2023-08-17T08:54:00;18.00;99.90
16838;DHT22;19510;54.486;9.046;2023-08-17T08:56:32;18.10;99.90
16838;DHT22;19510;54.486;9.046;2023-08-17T08:59:01;18.10;99.90
16838;DHT22;19510;54.486;9.046;2023-08-17T09:01:27;18.10;99.90
16838;DHT22;19510;54.486;9.046;2023-08-17T09:03:57;18.10;99.90
16838;DHT22;19510;54.486;9.046;2023-08-17T09:06:25;18.20;99.90
16838;DHT22;19510;54.486;9.046;2023-08-17T09:08:52;18.20;99.90
16838;DHT22;19510;54.486;9.046;2023-08-17T09:11:18;18.30;99.90
16838;DHT22;19510;54.486;9.046;2023-08-17T09:13:43;18.30;99.90
16838;DHT22;19510;54.486;9.046;2023-08-17T09:16:09;18.30;99.90
16838;DHT22;19510;54.486;9.046;2023-08-17T09:18:35;18.30;99.90
16838;DHT22;19510;54.486;9.046;2023-08-17T09:21:01;18.30;99.90
16838;DHT22;19510;54.486;9.046;2023-08-17T09:23:27;18.30;99.90
16838;DHT22;19510;54.486;9.046;2023-08-17T09:25:52;18.40;99.90
16838;DHT22;19510;54.486;9.046;2023-08-17T09:28:23;18.40;99.90
16838;DHT22;19510;54.486;9.046;2023-08-17T09:30:57;18.40;99.90
16838;DHT22;19510;54.486;9.046;2023-08-17T09:33:28;18.40;99.90
16838;DHT22;19510;54.486;9.046;2023-08-17T09:35:56;18.40;99.90
16838;DHT22;19510;54.486;9.046;2023-08-17T09:38:22;18.40;99.90
16838;DHT22;19510;54.486;9.046;2023-08-17T09:40:50;18.50;99.90
16838;DHT22;19510;54.486;9.046;2023-08-17T09:43:19;18.50;99.90
16838;DHT22;19510;54.486;9.046;2023-08-17T09:45:48;18.50;99.90
16838;DHT22;19510;54.486;9.046;2023-08-17T09:48:16;18.50;99.90
16838;DHT22;19510;54.486;9.046;2023-08-17T09:57:27;18.70;99.90
16838;DHT22;19510;54.486;9.046;2023-08-17T09:59:53;18.80;99.90
16838;DHT22;19510;54.486;9.046;2023-08-17T10:02:22;18.90;99.90
16838;DHT22;19510;54.486;9.046;2023-08-17T10:04:53;19.00;99.90
16838;DHT22;19510;54.486;9.046;2023-08-17T10:07:19;19.10;99.90
16838;DHT22;19510;54.486;9.046;2023-08-17T10:09:53;19.10;99.90
16838;DHT22;19510;54.486;9.046;2023-08-17T10:12:23;19.10;99.90
16838;DHT22;19510;54.486;9.046;2023-08-17T10:14:59;19.10;99.90
16838;DHT22;19510;54.486;9.046;2023-08-17T10:17:31;19.10;99.90
16838;DHT22;19510;54.486;9.046;2023-08-17T10:20:01;19.10;99.90
16838;DHT22;19510;54.486;9.046;2023-08-17T10:25:13;19.20;99.90
16838;DHT22;19510;54.486;9.046;2023-08-17T10:27:40;19.30;99.90
16838;DHT22;19510;54.486;9.046;2023-08-17T10:30:11;19.30;99.90
16838;DHT22;19510;54.486;9.046;2023-08-17T10:32:40;19.40;99.90
16838;DHT22;19510;54.486;9.046;2023-08-17T10:35:10;19.50;99.90
16838;DHT22;19510;54.486;9.046;2023-08-17T10:37:38;19.50;99.90
16838;DHT22;19510;54.486;9.046;2023-08-17T10:40:04;19.60;99.90
16838;DHT22;19510;54.486;9.046;2023-08-17T10:42:34;19.70;99.90
16838;DHT22;19510;54.486;9.046;2023-08-17T10:45:01;19.70;99.90
16838;DHT22;19510;54.486;9.046;2023-08-17T10:47:32;19.70;99.90
16838;DHT22;19510;54.486;9.046;2023-08-17T10:50:05;19.60;99.90
16838;DHT22;19510;54.486;9.046;2023-08-17T10:52:34;19.60;99.90
16838;DHT22;19510;54.486;9.046;2023-08-17T10:55:08;19.60;99.90
16838;DHT22;19510;54.486;9.046;2023-08-17T10:57:40;19.70;99.90
16838;DHT22;19510;54.486;9.046;2023-08-17T11:02:39;19.70;99.90
16838;DHT22;19510;54.486;9.046;2023-08-17T11:05:05;19.70;99.90
16838;DHT22;19510;54.486;9.046;2023-08-17T11:07:44;19.60;99.90
16838;DHT22;19510;54.486;9.046;2023-08-17T11:10:27;19.70;99.90
16838;DHT22;19510;54.486;9.046;2023-08-17T11:12:57;19.60;99.90
16838;DHT22;19510;54.486;9.046;2023-08-17T11:15:38;19.60;99.90
16838;DHT22;19510;54.486;9.046;2023-08-17T11:18:06;19.50;99.90
16838;DHT22;19510;54.486;9.046;2023-08-17T11:20:32;19.60;99.90
16838;DHT22;19510;54.486;9.046;2023-08-17T11:22:58;19.60;99.90
16838;DHT22;19510;54.486;9.046;2023-08-17T11:25:27;19.70;99.90
16838;DHT22;19510;54.486;9.046;2023-08-17T11:27:54;19.80;99.90
16838;DHT22;19510;54.486;9.046;2023-08-17T11:30:21;19.90;99.90
16838;DHT22;19510;54.486;9.046;2023-08-17T11:32:52;20.00;99.90
16838;DHT22;19510;54.486;9.046;2023-08-17T11:35:19;20.10;99.90
16838;DHT22;19510;54.486;9.046;2023-08-17T11:37:46;20.10;99.90
16838;DHT22;19510;54.486;9.046;2023-08-17T11:40:12;20.10;99.90
16838;DHT22;19510;54.486;9.046;2023-08-17T11:42:40;20.00;99.90
16838;DHT22;19510;54.486;9.046;2023-08-17T11:45:06;20.10;99.90
16838;DHT22;19510;54.486;9.046;2023-08-17T11:47:39;20.20;99.90
16838;DHT22;19510;54.486;9.046;2023-08-17T11:50:06;20.20;99.90
16838;DHT22;19510;54.486;9.046;2023-08-17T11:52:34;20.20;99.90
16838;DHT22;19510;54.486;9.046;2023-08-17T11:55:03;20.20;99.90
16838;DHT22;19510;54.486;9.046;2023-08-17T11:57:31;20.30;99.90
16838;DHT22;19510;54.486;9.046;2023-08-17T11:59:58;20.30;99.90
16838;DHT22;19510;54.486;9.046;2023-08-17T12:02:24;20.40;99.90
16838;DHT22;19510;54.486;9.046;2023-08-17T12:04:57;20.50;99.90
16838;DHT22;19510;54.486;9.046;2023-08-17T12:07:29;20.60;99.90
16838;DHT22;19510;54.486;9.046;2023-08-17T12:09:58;20.60;99.90
16838;DHT22;19510;54.486;9.046;2023-08-17T12:12:23;20.60;99.90
16838;DHT22;19510;54.486;9.046;2023-08-17T12:14:49;20.60;99.90
16838;DHT22;19510;54.486;9.046;2023-08-17T12:17:19;20.70;99.90
16838;DHT22;19510;54.486;9.046;2023-08-17T12:19:49;20.70;99.90
16838;DHT22;19510;54.486;9.046;2023-08-17T12:22:16;20.70;99.90
16838;DHT22;19510;54.486;9.046;2023-08-17T12:24:45;20.60;99.90
16838;DHT22;19510;54.486;9.046;2023-08-17T12:27:13;20.50;99.90
16838;DHT22;19510;54.486;9.046;2023-08-17T12:29:49;20.60;99.90
16838;DHT22;19510;54.486;9.046;2023-08-17T12:32:17;20.60;99.90
16838;DHT22;19510;54.486;9.046;2023-08-17T12:34:43;20.60;99.90
16838;DHT22;19510;54.486;9.046;2023-08-17T12:37:09;20.60;99.90
16838;DHT22;19510;54.486;9.046;2023-08-17T12:39:36;20.70;99.90
16838;DHT22;19510;54.486;9.046;2023-08-17T12:42:03;20.80;99.90
16838;DHT22;19510;54.486;9.046;2023-08-17T12:44:29;20.80;99.90
16838;DHT22;19510;54.486;9.046;2023-08-17T12:46:54;20.80;99.90
16838;DHT22;19510;54.486;9.046;2023-08-17T12:52:42;20.70;99.90
16838;DHT22;19510;54.486;9.046;2023-08-17T12:55:08;20.80;99.90
16838;DHT22;19510;54.486;9.046;2023-08-17T12:57:34;20.90;99.90
16838;DHT22;19510;54.486;9.046;2023-08-17T13:00:01;21.00;99.90
16838;DHT22;19510;54.486;9.046;2023-08-17T13:02:26;21.00;99.90
16838;DHT22;19510;54.486;9.046;2023-08-17T13:04:52;20.90;99.90
16838;DHT22;19510;54.486;9.046;2023-08-17T13:07:18;20.90;99.90
16838;DHT22;19510;54.486;9.046;2023-08-17T13:09:46;20.80;99.90
16838;DHT22;19510;54.486;9.046;2023-08-17T13:12:12;20.80;99.90
16838;DHT22;19510;54.486;9.046;2023-08-17T13:14:38;20.80;99.90
16838;DHT22;19510;54.486;9.046;2023-08-17T13:17:03;20.80;99.90
16838;DHT22;19510;54.486;9.046;2023-08-17T13:19:31;20.90;99.90
16838;DHT22;19510;54.486;9.046;2023-08-17T13:21:57;21.00;99.90
16838;DHT22;19510;54.486;9.046;2023-08-17T13:24:23;21.10;99.90
16838;DHT22;19510;54.486;9.046;2023-08-17T13:26:48;21.10;99.90
16838;DHT22;19510;54.486;9.046;2023-08-17T13:29:18;21.20;99.90
16838;DHT22;19510;54.486;9.046;2023-08-17T14:39:04;21.70;99.90
16838;DHT22;19510;54.486;9.046;2023-08-17T14:41:32;21.70;99.90
16838;DHT22;19510;54.486;9.046;2023-08-17T14:43:59;21.60;99.90
16838;DHT22;19510;54.486;9.046;2023-08-17T14:46:25;21.70;99.90
16838;DHT22;19510;54.486;9.046;2023-08-17T14:48:51;21.60;99.90
16838;DHT22;19510;54.486;9.046;2023-08-17T14:51:17;21.60;99.90
16838;DHT22;19510;54.486;9.046;2023-08-17T14:53:42;21.60;99.90
16838;DHT22;19510;54.486;9.046;2023-08-17T14:56:10;21.70;99.90
16838;DHT22;19510;54.486;9.046;2023-08-17T14:58:36;21.70;99.90
16838;DHT22;19510;54.486;9.046;2023-08-17T15:01:01;21.70;99.90
16838;DHT22;19510;54.486;9.046;2023-08-17T15:03:28;21.70;99.90
16838;DHT22;19510;54.486;9.046;2023-08-17T15:05:54;21.70;99.90
16838;DHT22;19510;54.486;9.046;2023-08-17T15:08:20;21.70;99.90
16838;DHT22;19510;54.486;9.046;2023-08-17T15:10:49;21.70;99.90
16838;DHT22;19510;54.486;9.046;2023-08-17T15:13:15;21.70;99.90
16838;DHT22;19510;54.486;9.046;2023-08-17T15:15:41;21.70;99.90
16838;DHT22;19510;54.486;9.046;2023-08-17T15:18:08;21.60;99.90
16838;DHT22;19510;54.486;9.046;2023-08-17T15:20:34;21.60;99.90
16838;DHT22;19510;54.486;9.046;2023-08-17T15:23:00;21.60;99.90
16838;DHT22;19510;54.486;9.046;2023-08-17T15:25:26;21.50;99.90
16838;DHT22;19510;54.486;9.046;2023-08-17T15:27:51;21.40;99.90
16838;DHT22;19510;54.486;9.046;2023-08-17T15:30:17;21.40;99.90
16838;DHT22;19510;54.486;9.046;2023-08-17T15:32:43;21.40;99.90
16838;DHT22;19510;54.486;9.046;2023-08-17T15:35:10;21.30;99.90
16838;DHT22;19510;54.486;9.046;2023-08-17T15:37:38;21.20;99.90
16838;DHT22;19510;54.486;9.046;2023-08-17T15:40:04;21.20;99.90
16838;DHT22;19510;54.486;9.046;2023-08-17T15:42:30;21.20;99.90
16838;DHT22;19510;54.486;9.046;2023-08-17T15:44:55;21.10;99.90
16838;DHT22;19510;54.486;9.046;2023-08-17T15:47:21;21.10;99.90
16838;DHT22;19510;54.486;9.046;2023-08-17T15:49:47;21.00;99.90
16838;DHT22;19510;54.486;9.046;2023-08-17T15:52:14;21.20;99.90
16838;DHT22;19510;54.486;9.046;2023-08-17T15:54:40;21.20;99.90
16838;DHT22;19510;54.486;9.046;2023-08-17T15:57:06;21.20;99.90
16838;DHT22;19510;54.486;9.046;2023-08-17T15:59:32;21.20;99.90
16838;DHT22;19510;54.486;9.046;2023-08-17T16:02:01;21.10;99.90
16838;DHT22;19510;54.486;9.046;2023-08-17T16:04:27;21.10;99.90
16838;DHT22;19510;54.486;9.046;2023-08-17T16:06:53;21.20;99.90
16838;DHT22;19510;54.486;9.046;2023-08-17T16:09:23;21.10;99.90
16838;DHT22;19510;54.486;9.046;2023-08-17T16:11:50;21.00;99.90
16838;DHT22;19510;54.486;9.046;2023-08-17T16:14:15;20.90;99.90
16838;DHT22;19510;54.486;9.046;2023-08-17T16:16:43;20.90;99.90
16838;DHT22;19510;54.486;9.046;2023-08-17T16:19:11;20.90;99.90
16838;DHT22;19510;54.486;9.046;2023-08-17T16:21:39;20.80;99.90
16838;DHT22;19510;54.486;9.046;2023-08-17T16:24:05;20.80;99.90
16838;DHT22;19510;54.486;9.046;2023-08-17T16:26:31;20.80;99.90
16838;DHT22;19510;54.486;9.046;2023-08-17T16:28:57;20.80;99.90
16838;DHT22;19510;54.486;9.046;2023-08-17T16:31:27;20.70;99.90
16838;DHT22;19510;54.486;9.046;2023-08-17T16:33:53;20.80;99.90
16838;DHT22;19510;54.486;9.046;2023-08-17T16:36:18;20.80;99.90
16838;DHT22;19510;54.486;9.046;2023-08-17T16:38:44;20.80;99.90
16838;DHT22;19510;54.486;9.046;2023-08-17T16:41:10;20.80;99.90
16838;DHT22;19510;54.486;9.046;2023-08-17T16:43:36;20.70;99.90
16838;DHT22;19510;54.486;9.046;2023-08-17T16:46:04;20.70;99.90
16838;DHT22;19510;54.486;9.046;2023-08-17T16:48:30;20.80;99.90
16838;DHT22;19510;54.486;9.046;2023-08-17T16:50:55;20.80;99.90
16838;DHT22;19510;54.486;9.046;2023-08-17T16:53:21;20.80;99.90
16838;DHT22;19510;54.486;9.046;2023-08-17T16:55:47;20.80;99.90
16838;DHT22;19510;54.486;9.046;2023-08-17T17:02:00;20.80;99.90
16838;DHT22;19510;54.486;9.046;2023-08-17T17:04:26;20.70;99.90
16838;DHT22;19510;54.486;9.046;2023-08-17T17:06:51;20.60;99.90
16838;DHT22;19510;54.486;9.046;2023-08-17T17:09:19;20.60;99.90
16838;DHT22;19510;54.486;9.046;2023-08-17T17:11:46;20.60;99.90
16838;DHT22;19510;54.486;9.046;2023-08-17T17:14:14;20.60;99.90
16838;DHT22;19510;54.486;9.046;2023-08-17T17:16:42;20.60;99.90
16838;DHT22;19510;54.486;9.046;2023-08-17T17:19:08;20.70;99.90
16838;DHT22;19510;54.486;9.046;2023-08-17T17:21:33;20.70;99.90
16838;DHT22;19510;54.486;9.046;2023-08-17T17:23:59;20.60;99.90
16838;DHT22;19510;54.486;9.046;2023-08-17T17:26:25;20.60;99.90
16838;DHT22;19510;54.486;9.046;2023-08-17T17:32:13;20.60;99.90
16838;DHT22;19510;54.486;9.046;2023-08-17T17:34:42;20.60;99.90
16838;DHT22;19510;54.486;9.046;2023-08-17T17:37:10;20.60;99.90
16838;DHT22;19510;54.486;9.046;2023-08-17T17:39:35;20.60;99.90
16838;DHT22;19510;54.486;9.046;2023-08-17T17:42:04;20.60;99.90
16838;DHT22;19510;54.486;9.046;2023-08-17T17:44:32;20.60;99.90
16838;DHT22;19510;54.486;9.046;2023-08-17T17:46:58;20.60;99.90
16838;DHT22;19510;54.486;9.046;2023-08-17T17:49:24;20.50;99.90
16838;DHT22;19510;54.486;9.046;2023-08-17T17:51:49;20.40;99.90
16838;DHT22;19510;54.486;9.046;2023-08-17T17:54:15;20.30;99.90
16838;DHT22;19510;54.486;9.046;2023-08-17T17:56:44;20.20;99.90
16838;DHT22;19510;54.486;9.046;2023-08-17T17:59:10;20.20;99.90
16838;DHT22;19510;54.486;9.046;2023-08-17T18:01:35;20.20;99.90
16838;DHT22;19510;54.486;9.046;2023-08-17T18:04:01;20.20;99.90
16838;DHT22;19510;54.486;9.046;2023-08-17T18:06:27;20.10;99.90
16838;DHT22;19510;54.486;9.046;2023-08-17T18:08:53;20.10;99.90
16838;DHT22;19510;54.486;9.046;2023-08-17T18:11:19;20.00;99.90
16838;DHT22;19510;54.486;9.046;2023-08-17T18:13:45;19.90;99.90
16838;DHT22;19510;54.486;9.046;2023-08-17T18:16:11;19.90;99.90
16838;DHT22;19510;54.486;9.046;2023-08-17T18:18:38;19.90;99.90
16838;DHT22;19510;54.486;9.046;2023-08-17T18:21:05;19.90;99.90
16838;DHT22;19510;54.486;9.046;2023-08-17T18:23:32;19.80;99.90
16838;DHT22;19510;54.486;9.046;2023-08-17T18:25:58;19.70;99.90
16838;DHT22;19510;54.486;9.046;2023-08-17T18:28:24;19.70;99.90
16838;DHT22;19510;54.486;9.046;2023-08-17T18:30:49;19.70;99.90
16838;DHT22;19510;54.486;9.046;2023-08-17T18:33:15;19.70;99.90
16838;DHT22;19510;54.486;9.046;2023-08-17T18:35:43;19.70;99.90
16838;DHT22;19510;54.486;9.046;2023-08-17T18:38:09;19.70;99.90